PWSweather.com
Personal Weather Stations
Station Observations
SEVANL01
SevillaES 41004

SevillaES 41004

Lat: 37.383633, Lon: -5.985787

Elevation: 19.685

Station Type: Davis Vantage Pro2

www.tiempoensevilla.es

High Low Average
Temperature 70.3°F21.3°C 54.9°F12.7°C 61.8°F16.6°C
Dew Point 58.1°F14.5°C 51.4°F10.8°C 54.6°F12.6°C
Winds 4.1 mph 6.6 kmh Calm Calm 2.0 mph E3.2 kmh E
Wind Gusts 10.0 mph16.1 kmh -- 4.0 mph6.4 kmh
Humidity 89% 60% 78%
Pressure 29.93 in1013.5 mb 29.71 in1006.1 mb -
Precipitation 0.00 in0.0 mm - -
Hour Temp Dew Point Humidity Winds Wind Gusts Pressure Precip Precip Rate Daily Precip Total
12:00 AM 60.5°F15.8°C 55.0°F12.8°C 82% Calm Calm -- 29.93 in1013.5 mb 0.00 in0.0 mm 0.00 in0.0 mm 0.00 in0.0 mm
12:20 AM 59.5°F15.3°C 54.7°F12.6°C 84% 2.8 mph N4.5 kmh N 4.0 mph6.4 kmh 29.93 in1013.5 mb 0.00 in0.0 mm 0.00 in0.0 mm 0.00 in0.0 mm
12:40 AM 58.6°F14.8°C 54.4°F12.4°C 86% 2.0 mph NNE3.2 kmh NNE 4.0 mph6.4 kmh 29.93 in1013.5 mb 0.00 in0.0 mm 0.00 in0.0 mm 0.00 in0.0 mm
01:00 AM 58.7°F14.8°C 54.5°F12.5°C 86% 2.7 mph NE4.3 kmh NE 4.0 mph6.4 kmh 29.93 in1013.5 mb 0.00 in0.0 mm 0.00 in0.0 mm 0.00 in0.0 mm
01:20 AM 58.6°F14.8°C 54.1°F12.3°C 85% 1.7 mph NE2.7 kmh NE 3.0 mph4.8 kmh 29.92 in1013.2 mb 0.00 in0.0 mm 0.00 in0.0 mm 0.00 in0.0 mm
01:40 AM 58.7°F14.8°C 54.2°F12.3°C 85% 1.9 mph NNE3.1 kmh NNE 3.0 mph4.8 kmh 29.92 in1013.2 mb 0.00 in0.0 mm 0.00 in0.0 mm 0.00 in0.0 mm
02:00 AM 58.5°F14.7°C 54.0°F12.2°C 85% 0.9 mph NE1.4 kmh NE 2.0 mph3.2 kmh 29.91 in1012.9 mb 0.00 in0.0 mm 0.00 in0.0 mm 0.00 in0.0 mm
02:20 AM 58.1°F14.5°C 53.6°F12.0°C 85% Calm Calm -- 29.91 in1012.9 mb 0.00 in0.0 mm 0.00 in0.0 mm 0.00 in0.0 mm
02:40 AM 57.3°F14.1°C 53.1°F11.7°C 86% 1.9 mph NW3.1 kmh NW 4.0 mph6.4 kmh 29.91 in1012.9 mb 0.00 in0.0 mm 0.00 in0.0 mm 0.00 in0.0 mm
03:00 AM 57.1°F13.9°C 53.3°F11.8°C 87% 1.6 mph NNW2.6 kmh NNW 4.0 mph6.4 kmh 29.91 in1012.9 mb 0.00 in0.0 mm 0.00 in0.0 mm 0.00 in0.0 mm
03:20 AM 56.9°F13.8°C 53.1°F11.7°C 87% 1.6 mph NW2.6 kmh NW 4.0 mph6.4 kmh 29.92 in1013.2 mb 0.00 in0.0 mm 0.00 in0.0 mm 0.00 in0.0 mm
03:40 AM 56.8°F13.8°C 53.0°F11.7°C 87% 2.0 mph NNE3.2 kmh NNE 4.0 mph6.4 kmh 29.91 in1012.9 mb 0.00 in0.0 mm 0.00 in0.0 mm 0.00 in0.0 mm
04:00 AM 56.8°F13.8°C 53.0°F11.7°C 87% 2.8 mph NNW4.5 kmh NNW 4.0 mph6.4 kmh 29.91 in1012.9 mb 0.00 in0.0 mm 0.00 in0.0 mm 0.00 in0.0 mm
04:20 AM 56.6°F13.7°C 53.1°F11.7°C 88% 2.9 mph NNE4.7 kmh NNE 6.0 mph9.7 kmh 29.90 in1012.5 mb 0.00 in0.0 mm 0.00 in0.0 mm 0.00 in0.0 mm
04:40 AM 56.4°F13.6°C 52.9°F11.6°C 88% 2.0 mph N3.2 kmh N 4.0 mph6.4 kmh 29.90 in1012.5 mb 0.00 in0.0 mm 0.00 in0.0 mm 0.00 in0.0 mm
05:00 AM 56.0°F13.3°C 52.5°F11.4°C 88% 2.2 mph N3.5 kmh N 5.0 mph8.0 kmh 29.90 in1012.5 mb 0.00 in0.0 mm 0.00 in0.0 mm 0.00 in0.0 mm
05:20 AM 55.7°F13.2°C 52.5°F11.4°C 89% 1.6 mph N2.6 kmh N 3.0 mph4.8 kmh 29.90 in1012.5 mb 0.00 in0.0 mm 0.00 in0.0 mm 0.00 in0.0 mm
05:40 AM 55.5°F13.1°C 52.3°F11.3°C 89% 2.4 mph N3.9 kmh N 5.0 mph8.0 kmh 29.90 in1012.5 mb 0.00 in0.0 mm 0.00 in0.0 mm 0.00 in0.0 mm
06:00 AM 55.4°F13.0°C 52.2°F11.2°C 89% 2.8 mph NE4.5 kmh NE 6.0 mph9.7 kmh 29.88 in1011.9 mb 0.00 in0.0 mm 0.00 in0.0 mm 0.00 in0.0 mm
06:20 AM 55.2°F12.9°C 52.0°F11.1°C 89% 4.0 mph NE6.4 kmh NE 9.0 mph14.5 kmh 29.88 in1011.9 mb 0.00 in0.0 mm 0.00 in0.0 mm 0.00 in0.0 mm
06:40 AM 55.2°F12.9°C 52.0°F11.1°C 89% 4.1 mph NE6.6 kmh NE 9.0 mph14.5 kmh 29.88 in1011.9 mb 0.00 in0.0 mm 0.00 in0.0 mm 0.00 in0.0 mm
07:00 AM 55.1°F12.8°C 51.9°F11.1°C 89% 3.2 mph NE5.1 kmh NE 5.0 mph8.0 kmh 29.89 in1012.2 mb 0.00 in0.0 mm 0.00 in0.0 mm 0.00 in0.0 mm
07:20 AM 55.2°F12.9°C 51.7°F10.9°C 88% 2.1 mph N3.4 kmh N 6.0 mph9.7 kmh 29.89 in1012.2 mb 0.00 in0.0 mm 0.00 in0.0 mm 0.00 in0.0 mm
07:40 AM 54.9°F12.7°C 51.7°F10.9°C 89% 3.0 mph N4.8 kmh N 5.0 mph8.0 kmh 29.90 in1012.5 mb 0.00 in0.0 mm 0.00 in0.0 mm 0.00 in0.0 mm
08:00 AM 54.9°F12.7°C 51.7°F10.9°C 89% 3.8 mph NNW6.1 kmh NNW 7.0 mph11.3 kmh 29.91 in1012.9 mb 0.00 in0.0 mm 0.00 in0.0 mm 0.00 in0.0 mm
08:20 AM 54.9°F12.7°C 51.7°F10.9°C 89% 3.5 mph NNW5.6 kmh NNW 6.0 mph9.7 kmh 29.91 in1012.9 mb 0.00 in0.0 mm 0.00 in0.0 mm 0.00 in0.0 mm
08:40 AM 55.0°F12.8°C 51.5°F10.8°C 88% 3.1 mph N5.0 kmh N 8.0 mph12.9 kmh 29.92 in1013.2 mb 0.00 in0.0 mm 0.00 in0.0 mm 0.00 in0.0 mm
09:00 AM 55.2°F12.9°C 51.4°F10.8°C 87% 3.0 mph N4.8 kmh N 8.0 mph12.9 kmh 29.92 in1013.2 mb 0.00 in0.0 mm 0.00 in0.0 mm 0.00 in0.0 mm
09:20 AM 55.7°F13.2°C 51.9°F11.1°C 87% 3.0 mph N4.8 kmh N 5.0 mph8.0 kmh 29.92 in1013.2 mb 0.00 in0.0 mm 0.00 in0.0 mm 0.00 in0.0 mm
09:40 AM 56.3°F13.5°C 52.2°F11.2°C 86% 3.0 mph N4.8 kmh N 5.0 mph8.0 kmh 29.93 in1013.5 mb 0.00 in0.0 mm 0.00 in0.0 mm 0.00 in0.0 mm
10:00 AM 56.7°F13.7°C 52.2°F11.2°C 85% 3.0 mph N4.8 kmh N 5.0 mph8.0 kmh 29.93 in1013.5 mb 0.00 in0.0 mm 0.00 in0.0 mm 0.00 in0.0 mm
10:20 AM 57.5°F14.2°C 52.7°F11.5°C 84% 2.4 mph N3.9 kmh N 5.0 mph8.0 kmh 29.92 in1013.2 mb 0.00 in0.0 mm 0.00 in0.0 mm 0.00 in0.0 mm
10:40 AM 58.2°F14.6°C 53.4°F11.9°C 84% 3.0 mph NE4.8 kmh NE 5.0 mph8.0 kmh 29.91 in1012.9 mb 0.00 in0.0 mm 0.00 in0.0 mm 0.00 in0.0 mm
11:00 AM 59.0°F15.0°C 53.8°F12.1°C 83% 3.3 mph ENE5.3 kmh ENE 10.0 mph16.1 kmh 29.91 in1012.9 mb 0.00 in0.0 mm 0.00 in0.0 mm 0.00 in0.0 mm
11:20 AM 60.3°F15.7°C 54.8°F12.7°C 82% 2.9 mph NE4.7 kmh NE 6.0 mph9.7 kmh 29.91 in1012.9 mb 0.00 in0.0 mm 0.00 in0.0 mm 0.00 in0.0 mm
11:40 AM 61.5°F16.4°C 55.3°F12.9°C 80% 2.4 mph NNE3.9 kmh NNE 4.0 mph6.4 kmh 29.91 in1012.9 mb 0.00 in0.0 mm 0.00 in0.0 mm 0.00 in0.0 mm
12:00 PM 62.7°F17.1°C 56.1°F13.4°C 79% 2.0 mph NE3.2 kmh NE 5.0 mph8.0 kmh 29.90 in1012.5 mb 0.00 in0.0 mm 0.00 in0.0 mm 0.00 in0.0 mm
12:20 PM 64.0°F17.8°C 56.6°F13.7°C 77% 3.9 mph NE6.3 kmh NE 8.0 mph12.9 kmh 29.89 in1012.2 mb 0.00 in0.0 mm 0.00 in0.0 mm 0.00 in0.0 mm
12:40 PM 65.8°F18.8°C 57.3°F14.1°C 74% 2.4 mph ENE3.9 kmh ENE 7.0 mph11.3 kmh 29.88 in1011.9 mb 0.00 in0.0 mm 0.00 in0.0 mm 0.00 in0.0 mm
01:00 PM 66.7°F19.3°C 57.0°F13.9°C 71% 3.7 mph E6.0 kmh E 8.0 mph12.9 kmh 29.87 in1011.5 mb 0.00 in0.0 mm 0.00 in0.0 mm 0.00 in0.0 mm
01:20 PM 67.9°F19.9°C 56.1°F13.4°C 66% 3.1 mph E5.0 kmh E 8.0 mph12.9 kmh 29.85 in1010.8 mb 0.00 in0.0 mm 0.00 in0.0 mm 0.00 in0.0 mm
01:40 PM 68.6°F20.3°C 57.6°F14.2°C 68% 3.0 mph ENE4.8 kmh ENE 8.0 mph12.9 kmh 29.84 in1010.5 mb 0.00 in0.0 mm 0.00 in0.0 mm 0.00 in0.0 mm
02:00 PM 69.5°F20.8°C 58.1°F14.5°C 67% 3.1 mph ENE5.0 kmh ENE 7.0 mph11.3 kmh 29.83 in1010.2 mb 0.00 in0.0 mm 0.00 in0.0 mm 0.00 in0.0 mm
02:20 PM 69.7°F20.9°C 57.4°F14.1°C 65% 2.7 mph E4.3 kmh E 7.0 mph11.3 kmh 29.82 in1009.8 mb 0.00 in0.0 mm 0.00 in0.0 mm 0.00 in0.0 mm
02:40 PM 69.8°F21.0°C 56.6°F13.7°C 63% 2.9 mph E4.7 kmh E 6.0 mph9.7 kmh 29.81 in1009.5 mb 0.00 in0.0 mm 0.00 in0.0 mm 0.00 in0.0 mm
03:00 PM 70.0°F21.1°C 56.4°F13.6°C 62% 2.0 mph E3.2 kmh E 6.0 mph9.7 kmh 29.80 in1009.1 mb 0.00 in0.0 mm 0.00 in0.0 mm 0.00 in0.0 mm
03:20 PM 70.3°F21.3°C 55.8°F13.2°C 60% 2.3 mph E3.7 kmh E 7.0 mph11.3 kmh 29.80 in1009.1 mb 0.00 in0.0 mm 0.00 in0.0 mm 0.00 in0.0 mm
03:40 PM 70.3°F21.3°C 55.8°F13.2°C 60% 1.8 mph SSE2.9 kmh SSE 5.0 mph8.0 kmh 29.79 in1008.8 mb 0.00 in0.0 mm 0.00 in0.0 mm 0.00 in0.0 mm
04:00 PM 70.0°F21.1°C 56.8°F13.8°C 63% 1.6 mph SW2.6 kmh SW 5.0 mph8.0 kmh 29.79 in1008.8 mb 0.00 in0.0 mm 0.00 in0.0 mm 0.00 in0.0 mm
04:20 PM 69.4°F20.8°C 56.7°F13.7°C 64% 1.0 mph SW1.6 kmh SW 4.0 mph6.4 kmh 29.79 in1008.8 mb 0.00 in0.0 mm 0.00 in0.0 mm 0.00 in0.0 mm
04:40 PM 69.0°F20.6°C 56.7°F13.7°C 65% 2.0 mph SW3.2 kmh SW 6.0 mph9.7 kmh 29.79 in1008.8 mb 0.00 in0.0 mm 0.00 in0.0 mm 0.00 in0.0 mm
05:00 PM 68.5°F20.3°C 57.1°F13.9°C 67% 2.4 mph SW3.9 kmh SW 7.0 mph11.3 kmh 29.78 in1008.5 mb 0.00 in0.0 mm 0.00 in0.0 mm 0.00 in0.0 mm
05:20 PM 68.1°F20.1°C 57.1°F13.9°C 68% 2.0 mph SW3.2 kmh SW 5.0 mph8.0 kmh 29.78 in1008.5 mb 0.00 in0.0 mm 0.00 in0.0 mm 0.00 in0.0 mm
05:40 PM 67.7°F19.8°C 57.2°F14.0°C 69% 1.5 mph SW2.4 kmh SW 3.0 mph4.8 kmh 29.77 in1008.1 mb 0.00 in0.0 mm 0.00 in0.0 mm 0.00 in0.0 mm
06:00 PM 67.3°F19.6°C 56.8°F13.8°C 69% 0.5 mph 0.8 kmh -- 29.77 in1008.1 mb 0.00 in0.0 mm 0.00 in0.0 mm 0.00 in0.0 mm
06:20 PM 67.0°F19.4°C 56.5°F13.6°C 69% Calm Calm -- 29.77 in1008.1 mb 0.00 in0.0 mm 0.00 in0.0 mm 0.00 in0.0 mm
06:40 PM 66.7°F19.3°C 56.6°F13.7°C 70% Calm Calm -- 29.77 in1008.1 mb 0.00 in0.0 mm 0.00 in0.0 mm 0.00 in0.0 mm
07:00 PM 66.5°F19.2°C 56.4°F13.6°C 70% Calm Calm -- 29.77 in1008.1 mb 0.00 in0.0 mm 0.00 in0.0 mm 0.00 in0.0 mm
07:20 PM 66.3°F19.1°C 56.2°F13.4°C 70% Calm Calm -- 29.76 in1007.8 mb 0.00 in0.0 mm 0.00 in0.0 mm 0.00 in0.0 mm
07:40 PM 66.1°F18.9°C 56.0°F13.3°C 70% Calm Calm -- 29.76 in1007.8 mb 0.00 in0.0 mm 0.00 in0.0 mm 0.00 in0.0 mm
08:00 PM 65.8°F18.8°C 56.1°F13.4°C 71% Calm Calm -- 29.77 in1008.1 mb 0.00 in0.0 mm 0.00 in0.0 mm 0.00 in0.0 mm
08:20 PM 65.4°F18.6°C 56.5°F13.6°C 73% 0.9 mph SW1.4 kmh SW 3.0 mph4.8 kmh 29.76 in1007.8 mb 0.00 in0.0 mm 0.00 in0.0 mm 0.00 in0.0 mm
08:40 PM 65.0°F18.3°C 56.1°F13.4°C 73% Calm Calm -- 29.75 in1007.5 mb 0.00 in0.0 mm 0.00 in0.0 mm 0.00 in0.0 mm
09:00 PM 64.8°F18.2°C 56.3°F13.5°C 74% Calm Calm -- 29.75 in1007.5 mb 0.00 in0.0 mm 0.00 in0.0 mm 0.00 in0.0 mm
09:20 PM 64.3°F17.9°C 56.2°F13.4°C 75% Calm Calm -- 29.74 in1007.1 mb 0.00 in0.0 mm 0.00 in0.0 mm 0.00 in0.0 mm
09:40 PM 64.1°F17.8°C 56.4°F13.6°C 76% Calm Calm -- 29.73 in1006.8 mb 0.00 in0.0 mm 0.00 in0.0 mm 0.00 in0.0 mm
10:00 PM 63.9°F17.7°C 56.2°F13.4°C 76% 1.5 mph NE2.4 kmh NE 3.0 mph4.8 kmh 29.73 in1006.8 mb 0.00 in0.0 mm 0.00 in0.0 mm 0.00 in0.0 mm
10:20 PM 63.4°F17.4°C 55.7°F13.2°C 76% 2.0 mph E3.2 kmh E 7.0 mph11.3 kmh 29.72 in1006.4 mb 0.00 in0.0 mm 0.00 in0.0 mm 0.00 in0.0 mm
10:40 PM 63.3°F17.4°C 54.9°F12.7°C 74% 3.0 mph E4.8 kmh E 7.0 mph11.3 kmh 29.72 in1006.4 mb 0.00 in0.0 mm 0.00 in0.0 mm 0.00 in0.0 mm
11:00 PM 63.3°F17.4°C 54.1°F12.3°C 72% 1.1 mph SSE1.8 kmh SSE 5.0 mph8.0 kmh 29.73 in1006.8 mb 0.00 in0.0 mm 0.00 in0.0 mm 0.00 in0.0 mm
11:20 PM 63.3°F17.4°C 53.7°F12.1°C 71% 1.0 mph E1.6 kmh E 4.0 mph6.4 kmh 29.72 in1006.4 mb 0.00 in0.0 mm 0.00 in0.0 mm 0.00 in0.0 mm
11:40 PM 63.2°F17.3°C 53.6°F12.0°C 71% 1.0 mph E1.6 kmh E 2.0 mph3.2 kmh 29.71 in1006.1 mb 0.00 in0.0 mm 0.00 in0.0 mm 0.00 in0.0 mm